sensor_id;sensor_type;location;lat;lon;timestamp;P1;durP1;ratioP1;P2;durP2;ratioP2
66886;SDS011;67239;51.680;5.976;2024-01-30T00:00:34;18.95;;;12.40;;
66886;SDS011;67239;51.680;5.976;2024-01-30T00:03:01;17.05;;;11.98;;
66886;SDS011;67239;51.680;5.976;2024-01-30T00:05:28;17.48;;;13.05;;
66886;SDS011;67239;51.680;5.976;2024-01-30T00:07:55;17.08;;;11.75;;
66886;SDS011;67239;51.680;5.976;2024-01-30T00:10:22;17.38;;;12.43;;
66886;SDS011;67239;51.680;5.976;2024-01-30T00:12:49;17.70;;;11.65;;
66886;SDS011;67239;51.680;5.976;2024-01-30T00:15:17;19.17;;;12.60;;
66886;SDS011;67239;51.680;5.976;2024-01-30T00:17:45;18.10;;;11.68;;
66886;SDS011;67239;51.680;5.976;2024-01-30T00:20:12;18.67;;;12.68;;
66886;SDS011;67239;51.680;5.976;2024-01-30T00:22:39;21.17;;;12.60;;
66886;SDS011;67239;51.680;5.976;2024-01-30T00:25:06;16.55;;;11.77;;
66886;SDS011;67239;51.680;5.976;2024-01-30T00:27:34;20.15;;;12.25;;
66886;SDS011;67239;51.680;5.976;2024-01-30T00:30:01;16.85;;;11.20;;
66886;SDS011;67239;51.680;5.976;2024-01-30T00:32:29;17.58;;;11.68;;
66886;SDS011;67239;51.680;5.976;2024-01-30T00:34:56;19.15;;;12.35;;
66886;SDS011;67239;51.680;5.976;2024-01-30T00:37:23;16.63;;;11.45;;
66886;SDS011;67239;51.680;5.976;2024-01-30T00:39:51;15.15;;;11.43;;
66886;SDS011;67239;51.680;5.976;2024-01-30T00:42:18;18.13;;;11.25;;
66886;SDS011;67239;51.680;5.976;2024-01-30T00:44:46;16.88;;;11.25;;
66886;SDS011;67239;51.680;5.976;2024-01-30T00:47:13;16.60;;;11.07;;
66886;SDS011;67239;51.680;5.976;2024-01-30T00:49:40;16.35;;;10.95;;
66886;SDS011;67239;51.680;5.976;2024-01-30T00:52:07;15.68;;;10.73;;
66886;SDS011;67239;51.680;5.976;2024-01-30T00:54:34;16.60;;;10.93;;
66886;SDS011;67239;51.680;5.976;2024-01-30T00:57:01;16.85;;;10.73;;
66886;SDS011;67239;51.680;5.976;2024-01-30T00:59:28;17.70;;;11.00;;
66886;SDS011;67239;51.680;5.976;2024-01-30T01:01:55;14.93;;;10.40;;
66886;SDS011;67239;51.680;5.976;2024-01-30T01:04:23;15.10;;;9.95;;
66886;SDS011;67239;51.680;5.976;2024-01-30T01:06:50;16.98;;;10.40;;
66886;SDS011;67239;51.680;5.976;2024-01-30T01:09:17;15.57;;;9.98;;
66886;SDS011;67239;51.680;5.976;2024-01-30T01:11:44;14.25;;;10.50;;
66886;SDS011;67239;51.680;5.976;2024-01-30T01:14:11;15.75;;;10.63;;
66886;SDS011;67239;51.680;5.976;2024-01-30T01:16:38;14.70;;;10.57;;
66886;SDS011;67239;51.680;5.976;2024-01-30T01:19:05;17.80;;;10.77;;
66886;SDS011;67239;51.680;5.976;2024-01-30T01:21:33;14.32;;;10.63;;
66886;SDS011;67239;51.680;5.976;2024-01-30T01:24:00;21.77;;;10.55;;
66886;SDS011;67239;51.680;5.976;2024-01-30T01:26:27;16.35;;;10.27;;
66886;SDS011;67239;51.680;5.976;2024-01-30T01:28:54;15.05;;;10.15;;
66886;SDS011;67239;51.680;5.976;2024-01-30T01:31:21;14.88;;;9.77;;
66886;SDS011;67239;51.680;5.976;2024-01-30T01:33:51;15.50;;;10.35;;
66886;SDS011;67239;51.680;5.976;2024-01-30T01:36:19;14.05;;;9.90;;
66886;SDS011;67239;51.680;5.976;2024-01-30T01:38:46;16.27;;;10.40;;
66886;SDS011;67239;51.680;5.976;2024-01-30T01:41:13;15.90;;;9.95;;
66886;SDS011;67239;51.680;5.976;2024-01-30T01:43:40;14.52;;;9.98;;
66886;SDS011;67239;51.680;5.976;2024-01-30T01:46:07;13.07;;;9.93;;
66886;SDS011;67239;51.680;5.976;2024-01-30T01:48:35;14.65;;;10.40;;
66886;SDS011;67239;51.680;5.976;2024-01-30T01:51:04;17.10;;;9.73;;
66886;SDS011;67239;51.680;5.976;2024-01-30T01:53:31;19.58;;;10.48;;
66886;SDS011;67239;51.680;5.976;2024-01-30T01:55:59;17.63;;;10.00;;
66886;SDS011;67239;51.680;5.976;2024-01-30T01:58:27;13.32;;;9.93;;
66886;SDS011;67239;51.680;5.976;2024-01-30T02:00:56;14.70;;;9.90;;
66886;SDS011;67239;51.680;5.976;2024-01-30T02:03:25;14.57;;;10.35;;
66886;SDS011;67239;51.680;5.976;2024-01-30T02:05:52;14.48;;;9.32;;
66886;SDS011;67239;51.680;5.976;2024-01-30T02:08:22;14.13;;;9.70;;
66886;SDS011;67239;51.680;5.976;2024-01-30T02:10:51;16.58;;;10.20;;
66886;SDS011;67239;51.680;5.976;2024-01-30T02:13:18;15.43;;;9.68;;
66886;SDS011;67239;51.680;5.976;2024-01-30T02:15:48;17.63;;;9.77;;
66886;SDS011;67239;51.680;5.976;2024-01-30T02:18:19;14.55;;;9.13;;
66886;SDS011;67239;51.680;5.976;2024-01-30T02:20:48;13.85;;;9.40;;
66886;SDS011;67239;51.680;5.976;2024-01-30T02:23:15;15.30;;;9.40;;
66886;SDS011;67239;51.680;5.976;2024-01-30T02:25:43;14.95;;;9.82;;
66886;SDS011;67239;51.680;5.976;2024-01-30T02:28:13;15.05;;;9.32;;
66886;SDS011;67239;51.680;5.976;2024-01-30T02:30:42;14.38;;;9.00;;
66886;SDS011;67239;51.680;5.976;2024-01-30T02:33:09;15.88;;;9.90;;
66886;SDS011;67239;51.680;5.976;2024-01-30T02:35:37;17.25;;;10.15;;
66886;SDS011;67239;51.680;5.976;2024-01-30T02:38:04;14.05;;;9.65;;
66886;SDS011;67239;51.680;5.976;2024-01-30T02:40:32;13.35;;;9.35;;
66886;SDS011;67239;51.680;5.976;2024-01-30T02:42:59;14.63;;;9.52;;
66886;SDS011;67239;51.680;5.976;2024-01-30T02:45:29;14.23;;;9.57;;
66886;SDS011;67239;51.680;5.976;2024-01-30T02:47:56;15.23;;;9.23;;
66886;SDS011;67239;51.680;5.976;2024-01-30T02:50:23;13.70;;;9.32;;
66886;SDS011;67239;51.680;5.976;2024-01-30T02:52:50;15.20;;;9.85;;
66886;SDS011;67239;51.680;5.976;2024-01-30T02:55:17;15.15;;;9.45;;
66886;SDS011;67239;51.680;5.976;2024-01-30T02:57:45;16.77;;;9.70;;
66886;SDS011;67239;51.680;5.976;2024-01-30T03:00:13;13.93;;;9.55;;
66886;SDS011;67239;51.680;5.976;2024-01-30T03:02:40;16.63;;;10.15;;
66886;SDS011;67239;51.680;5.976;2024-01-30T03:05:08;18.50;;;10.75;;
66886;SDS011;67239;51.680;5.976;2024-01-30T03:07:35;16.77;;;9.88;;
66886;SDS011;67239;51.680;5.976;2024-01-30T03:10:04;16.42;;;9.77;;
66886;SDS011;67239;51.680;5.976;2024-01-30T03:12:33;14.27;;;9.60;;
66886;SDS011;67239;51.680;5.976;2024-01-30T03:15:00;14.43;;;9.43;;
66886;SDS011;67239;51.680;5.976;2024-01-30T03:17:27;13.38;;;9.65;;
66886;SDS011;67239;51.680;5.976;2024-01-30T03:19:54;13.65;;;9.48;;
66886;SDS011;67239;51.680;5.976;2024-01-30T03:22:22;16.80;;;10.60;;
66886;SDS011;67239;51.680;5.976;2024-01-30T03:24:49;16.73;;;10.23;;
66886;SDS011;67239;51.680;5.976;2024-01-30T03:27:16;14.80;;;9.70;;
66886;SDS011;67239;51.680;5.976;2024-01-30T03:29:43;14.70;;;9.38;;
66886;SDS011;67239;51.680;5.976;2024-01-30T03:32:10;18.13;;;10.48;;
66886;SDS011;67239;51.680;5.976;2024-01-30T03:34:37;15.43;;;10.00;;
66886;SDS011;67239;51.680;5.976;2024-01-30T03:37:05;16.65;;;9.80;;
66886;SDS011;67239;51.680;5.976;2024-01-30T03:39:32;13.85;;;9.25;;
66886;SDS011;67239;51.680;5.976;2024-01-30T03:41:59;21.17;;;10.38;;
66886;SDS011;67239;51.680;5.976;2024-01-30T03:44:26;17.25;;;9.65;;
66886;SDS011;67239;51.680;5.976;2024-01-30T03:46:53;15.48;;;9.35;;
66886;SDS011;67239;51.680;5.976;2024-01-30T03:49:21;13.98;;;9.32;;
66886;SDS011;67239;51.680;5.976;2024-01-30T03:51:48;13.73;;;9.35;;
66886;SDS011;67239;51.680;5.976;2024-01-30T03:54:15;14.68;;;9.05;;
66886;SDS011;67239;51.680;5.976;2024-01-30T03:56:42;14.30;;;9.65;;
66886;SDS011;67239;51.680;5.976;2024-01-30T03:59:09;16.02;;;9.30;;
66886;SDS011;67239;51.680;5.976;2024-01-30T04:01:37;13.05;;;9.00;;
66886;SDS011;67239;51.680;5.976;2024-01-30T04:04:04;14.20;;;9.07;;
66886;SDS011;67239;51.680;5.976;2024-01-30T04:06:31;12.80;;;9.48;;
66886;SDS011;67239;51.680;5.976;2024-01-30T04:08:58;14.35;;;8.77;;
66886;SDS011;67239;51.680;5.976;2024-01-30T04:11:25;16.13;;;9.35;;
66886;SDS011;67239;51.680;5.976;2024-01-30T04:13:52;12.13;;;9.00;;
66886;SDS011;67239;51.680;5.976;2024-01-30T04:16:20;13.27;;;8.50;;
66886;SDS011;67239;51.680;5.976;2024-01-30T04:18:51;25.17;;;10.73;;
66886;SDS011;67239;51.680;5.976;2024-01-30T04:21:20;14.68;;;8.85;;
66886;SDS011;67239;51.680;5.976;2024-01-30T04:23:48;15.27;;;9.30;;
66886;SDS011;67239;51.680;5.976;2024-01-30T04:26:17;11.70;;;8.80;;
66886;SDS011;67239;51.680;5.976;2024-01-30T04:28:45;13.70;;;9.05;;
66886;SDS011;67239;51.680;5.976;2024-01-30T04:31:12;15.77;;;9.45;;
66886;SDS011;67239;51.680;5.976;2024-01-30T04:33:39;15.45;;;9.13;;
66886;SDS011;67239;51.680;5.976;2024-01-30T04:36:08;17.13;;;9.52;;
66886;SDS011;67239;51.680;5.976;2024-01-30T04:38:37;14.68;;;9.10;;
66886;SDS011;67239;51.680;5.976;2024-01-30T04:41:05;14.43;;;9.30;;
66886;SDS011;67239;51.680;5.976;2024-01-30T04:43:32;13.50;;;9.02;;
66886;SDS011;67239;51.680;5.976;2024-01-30T04:45:59;14.27;;;8.65;;
66886;SDS011;67239;51.680;5.976;2024-01-30T04:48:27;12.75;;;8.95;;
66886;SDS011;67239;51.680;5.976;2024-01-30T04:50:54;12.80;;;9.02;;
66886;SDS011;67239;51.680;5.976;2024-01-30T04:53:22;13.27;;;8.50;;
66886;SDS011;67239;51.680;5.976;2024-01-30T04:55:50;13.45;;;9.20;;
66886;SDS011;67239;51.680;5.976;2024-01-30T04:58:17;12.95;;;9.45;;
66886;SDS011;67239;51.680;5.976;2024-01-30T05:00:44;16.40;;;9.18;;
66886;SDS011;67239;51.680;5.976;2024-01-30T05:03:13;19.35;;;9.05;;
66886;SDS011;67239;51.680;5.976;2024-01-30T05:05:40;12.82;;;8.98;;
66886;SDS011;67239;51.680;5.976;2024-01-30T05:08:07;14.18;;;8.45;;
66886;SDS011;67239;51.680;5.976;2024-01-30T05:10:34;15.40;;;9.05;;
66886;SDS011;67239;51.680;5.976;2024-01-30T05:13:01;13.07;;;8.40;;
66886;SDS011;67239;51.680;5.976;2024-01-30T05:15:29;13.23;;;8.70;;
66886;SDS011;67239;51.680;5.976;2024-01-30T05:17:56;13.50;;;8.63;;
66886;SDS011;67239;51.680;5.976;2024-01-30T05:20:23;13.02;;;9.05;;
66886;SDS011;67239;51.680;5.976;2024-01-30T05:22:50;12.38;;;8.63;;
66886;SDS011;67239;51.680;5.976;2024-01-30T05:25:17;12.30;;;8.40;;
66886;SDS011;67239;51.680;5.976;2024-01-30T05:27:44;13.13;;;8.32;;
66886;SDS011;67239;51.680;5.976;2024-01-30T05:30:12;12.70;;;8.60;;
66886;SDS011;67239;51.680;5.976;2024-01-30T05:32:39;12.52;;;8.75;;
66886;SDS011;67239;51.680;5.976;2024-01-30T05:35:06;11.13;;;7.95;;
66886;SDS011;67239;51.680;5.976;2024-01-30T05:37:37;13.88;;;8.93;;
66886;SDS011;67239;51.680;5.976;2024-01-30T05:40:04;12.07;;;8.20;;
66886;SDS011;67239;51.680;5.976;2024-01-30T05:42:32;12.85;;;7.75;;
66886;SDS011;67239;51.680;5.976;2024-01-30T05:44:59;11.80;;;8.20;;
66886;SDS011;67239;51.680;5.976;2024-01-30T05:47:26;17.65;;;8.25;;
66886;SDS011;67239;51.680;5.976;2024-01-30T05:49:53;14.88;;;8.43;;
66886;SDS011;67239;51.680;5.976;2024-01-30T05:52:20;12.00;;;8.23;;
66886;SDS011;67239;51.680;5.976;2024-01-30T05:54:47;16.00;;;8.25;;
66886;SDS011;67239;51.680;5.976;2024-01-30T05:57:14;13.73;;;8.18;;
66886;SDS011;67239;51.680;5.976;2024-01-30T05:59:42;11.70;;;8.18;;
66886;SDS011;67239;51.680;5.976;2024-01-30T06:02:11;12.75;;;7.90;;
66886;SDS011;67239;51.680;5.976;2024-01-30T06:04:38;10.82;;;8.00;;
66886;SDS011;67239;51.680;5.976;2024-01-30T06:07:05;11.75;;;7.65;;
66886;SDS011;67239;51.680;5.976;2024-01-30T06:09:33;10.30;;;7.55;;
66886;SDS011;67239;51.680;5.976;2024-01-30T06:12:00;12.55;;;7.80;;
66886;SDS011;67239;51.680;5.976;2024-01-30T06:14:27;13.85;;;8.32;;
66886;SDS011;67239;51.680;5.976;2024-01-30T06:16:55;12.15;;;7.40;;
66886;SDS011;67239;51.680;5.976;2024-01-30T06:19:22;14.23;;;8.00;;
66886;SDS011;67239;51.680;5.976;2024-01-30T06:21:49;12.48;;;7.40;;
66886;SDS011;67239;51.680;5.976;2024-01-30T06:24:16;14.07;;;7.90;;
66886;SDS011;67239;51.680;5.976;2024-01-30T06:26:43;12.15;;;8.85;;
66886;SDS011;67239;51.680;5.976;2024-01-30T06:29:10;12.43;;;8.20;;
66886;SDS011;67239;51.680;5.976;2024-01-30T06:31:41;13.35;;;8.32;;
66886;SDS011;67239;51.680;5.976;2024-01-30T06:34:09;12.95;;;8.25;;
66886;SDS011;67239;51.680;5.976;2024-01-30T06:36:38;15.02;;;8.35;;
66886;SDS011;67239;51.680;5.976;2024-01-30T06:39:06;12.65;;;8.80;;
66886;SDS011;67239;51.680;5.976;2024-01-30T06:41:34;15.57;;;9.02;;
66886;SDS011;67239;51.680;5.976;2024-01-30T06:44:02;11.68;;;7.82;;
66886;SDS011;67239;51.680;5.976;2024-01-30T06:46:30;16.52;;;8.13;;
66886;SDS011;67239;51.680;5.976;2024-01-30T06:48:58;13.02;;;7.40;;
66886;SDS011;67239;51.680;5.976;2024-01-30T06:51:25;10.80;;;7.28;;
66886;SDS011;67239;51.680;5.976;2024-01-30T06:53:52;9.68;;;7.88;;
66886;SDS011;67239;51.680;5.976;2024-01-30T06:56:19;11.13;;;7.88;;
66886;SDS011;67239;51.680;5.976;2024-01-30T06:58:48;14.15;;;8.63;;
66886;SDS011;67239;51.680;5.976;2024-01-30T07:01:16;11.60;;;7.88;;
66886;SDS011;67239;51.680;5.976;2024-01-30T07:03:44;10.80;;;7.38;;
66886;SDS011;67239;51.680;5.976;2024-01-30T07:06:11;13.00;;;8.32;;
66886;SDS011;67239;51.680;5.976;2024-01-30T07:08:38;13.93;;;8.98;;
66886;SDS011;67239;51.680;5.976;2024-01-30T07:11:05;14.10;;;8.75;;
66886;SDS011;67239;51.680;5.976;2024-01-30T07:13:34;11.32;;;8.60;;
66886;SDS011;67239;51.680;5.976;2024-01-30T07:16:02;11.88;;;7.80;;
66886;SDS011;67239;51.680;5.976;2024-01-30T07:18:29;14.93;;;8.30;;
66886;SDS011;67239;51.680;5.976;2024-01-30T07:20:56;14.05;;;9.00;;
66886;SDS011;67239;51.680;5.976;2024-01-30T07:23:23;12.18;;;8.13;;
66886;SDS011;67239;51.680;5.976;2024-01-30T07:25:50;11.75;;;8.52;;
66886;SDS011;67239;51.680;5.976;2024-01-30T07:28:19;10.45;;;8.05;;
66886;SDS011;67239;51.680;5.976;2024-01-30T07:30:47;10.65;;;8.05;;
66886;SDS011;67239;51.680;5.976;2024-01-30T07:33:15;9.73;;;7.55;;
66886;SDS011;67239;51.680;5.976;2024-01-30T07:35:43;12.98;;;8.07;;
66886;SDS011;67239;51.680;5.976;2024-01-30T07:38:12;13.90;;;8.13;;
66886;SDS011;67239;51.680;5.976;2024-01-30T07:40:39;11.95;;;8.15;;
66886;SDS011;67239;51.680;5.976;2024-01-30T07:43:07;13.13;;;8.32;;
66886;SDS011;67239;51.680;5.976;2024-01-30T07:45:35;12.40;;;8.10;;
66886;SDS011;67239;51.680;5.976;2024-01-30T07:48:02;13.02;;;8.27;;
66886;SDS011;67239;51.680;5.976;2024-01-30T07:50:29;12.43;;;8.50;;
66886;SDS011;67239;51.680;5.976;2024-01-30T07:52:56;23.60;;;8.00;;
66886;SDS011;67239;51.680;5.976;2024-01-30T07:55:25;12.35;;;7.97;;
66886;SDS011;67239;51.680;5.976;2024-01-30T07:57:57;12.43;;;7.75;;
66886;SDS011;67239;51.680;5.976;2024-01-30T08:00:26;14.00;;;8.35;;
66886;SDS011;67239;51.680;5.976;2024-01-30T08:02:53;11.93;;;7.93;;
66886;SDS011;67239;51.680;5.976;2024-01-30T08:05:24;10.85;;;7.75;;
66886;SDS011;67239;51.680;5.976;2024-01-30T08:07:51;11.77;;;8.00;;
66886;SDS011;67239;51.680;5.976;2024-01-30T08:10:18;16.33;;;8.05;;
66886;SDS011;67239;51.680;5.976;2024-01-30T08:12:47;16.80;;;8.05;;
66886;SDS011;67239;51.680;5.976;2024-01-30T08:15:14;12.23;;;7.82;;
66886;SDS011;67239;51.680;5.976;2024-01-30T08:17:41;12.13;;;8.07;;
66886;SDS011;67239;51.680;5.976;2024-01-30T08:20:08;12.77;;;7.88;;
66886;SDS011;67239;51.680;5.976;2024-01-30T08:22:38;12.02;;;7.85;;
66886;SDS011;67239;51.680;5.976;2024-01-30T08:25:07;11.07;;;8.00;;
66886;SDS011;67239;51.680;5.976;2024-01-30T08:27:35;11.48;;;7.68;;
66886;SDS011;67239;51.680;5.976;2024-01-30T08:30:08;13.43;;;7.55;;
66886;SDS011;67239;51.680;5.976;2024-01-30T08:32:35;12.68;;;7.63;;
66886;SDS011;67239;51.680;5.976;2024-01-30T08:35:02;11.18;;;7.43;;
66886;SDS011;67239;51.680;5.976;2024-01-30T08:37:30;9.93;;;6.95;;
66886;SDS011;67239;51.680;5.976;2024-01-30T08:39:58;11.13;;;7.55;;
66886;SDS011;67239;51.680;5.976;2024-01-30T08:42:25;10.95;;;7.47;;
66886;SDS011;67239;51.680;5.976;2024-01-30T08:44:52;10.45;;;7.40;;
66886;SDS011;67239;51.680;5.976;2024-01-30T08:47:20;10.95;;;7.70;;
66886;SDS011;67239;51.680;5.976;2024-01-30T08:49:47;13.45;;;7.53;;
66886;SDS011;67239;51.680;5.976;2024-01-30T08:52:14;10.13;;;6.80;;
66886;SDS011;67239;51.680;5.976;2024-01-30T08:54:41;12.55;;;7.45;;
66886;SDS011;67239;51.680;5.976;2024-01-30T08:57:08;9.88;;;7.03;;
66886;SDS011;67239;51.680;5.976;2024-01-30T08:59:35;10.27;;;6.95;;
66886;SDS011;67239;51.680;5.976;2024-01-30T09:02:03;13.25;;;6.97;;
66886;SDS011;67239;51.680;5.976;2024-01-30T09:04:38;9.23;;;6.70;;
66886;SDS011;67239;51.680;5.976;2024-01-30T09:07:07;10.15;;;7.07;;
66886;SDS011;67239;51.680;5.976;2024-01-30T09:09:37;13.63;;;8.93;;
66886;SDS011;67239;51.680;5.976;2024-01-30T09:12:08;12.18;;;8.02;;
66886;SDS011;67239;51.680;5.976;2024-01-30T09:14:37;13.55;;;8.32;;
66886;SDS011;67239;51.680;5.976;2024-01-30T09:17:05;13.70;;;8.18;;
66886;SDS011;67239;51.680;5.976;2024-01-30T09:19:32;10.90;;;7.60;;
66886;SDS011;67239;51.680;5.976;2024-01-30T09:21:59;11.73;;;7.47;;
66886;SDS011;67239;51.680;5.976;2024-01-30T09:24:27;13.27;;;8.43;;
66886;SDS011;67239;51.680;5.976;2024-01-30T09:26:55;10.45;;;7.88;;
66886;SDS011;67239;51.680;5.976;2024-01-30T09:29:22;14.35;;;8.52;;
66886;SDS011;67239;51.680;5.976;2024-01-30T09:31:49;10.13;;;7.22;;
66886;SDS011;67239;51.680;5.976;2024-01-30T09:34:16;11.82;;;7.68;;
66886;SDS011;67239;51.680;5.976;2024-01-30T09:36:44;18.02;;;7.85;;
66886;SDS011;67239;51.680;5.976;2024-01-30T09:39:11;15.75;;;8.00;;
66886;SDS011;67239;51.680;5.976;2024-01-30T09:41:43;11.10;;;7.50;;
66886;SDS011;67239;51.680;5.976;2024-01-30T09:44:25;13.25;;;7.78;;
66886;SDS011;67239;51.680;5.976;2024-01-30T09:46:55;16.17;;;8.23;;
66886;SDS011;67239;51.680;5.976;2024-01-30T09:49:25;12.48;;;7.43;;
66886;SDS011;67239;51.680;5.976;2024-01-30T09:51:54;15.23;;;7.22;;
66886;SDS011;67239;51.680;5.976;2024-01-30T09:54:22;13.50;;;7.40;;
66886;SDS011;67239;51.680;5.976;2024-01-30T09:56:50;9.57;;;6.65;;
66886;SDS011;67239;51.680;5.976;2024-01-30T09:59:17;13.25;;;7.32;;
66886;SDS011;67239;51.680;5.976;2024-01-30T10:01:44;11.95;;;7.43;;
66886;SDS011;67239;51.680;5.976;2024-01-30T10:04:12;10.73;;;6.88;;
66886;SDS011;67239;51.680;5.976;2024-01-30T10:06:40;10.90;;;7.53;;
66886;SDS011;67239;51.680;5.976;2024-01-30T10:09:07;13.02;;;7.47;;
66886;SDS011;67239;51.680;5.976;2024-01-30T10:11:36;14.35;;;7.30;;
66886;SDS011;67239;51.680;5.976;2024-01-30T10:14:03;8.85;;;7.05;;
66886;SDS011;67239;51.680;5.976;2024-01-30T10:16:30;10.63;;;7.45;;
66886;SDS011;67239;51.680;5.976;2024-01-30T10:18:57;12.38;;;7.15;;
66886;SDS011;67239;51.680;5.976;2024-01-30T10:21:25;10.77;;;7.13;;
66886;SDS011;67239;51.680;5.976;2024-01-30T10:23:52;9.88;;;7.30;;
66886;SDS011;67239;51.680;5.976;2024-01-30T10:26:19;12.50;;;7.30;;
66886;SDS011;67239;51.680;5.976;2024-01-30T10:28:47;10.73;;;7.15;;
66886;SDS011;67239;51.680;5.976;2024-01-30T10:31:18;10.52;;;6.95;;
66886;SDS011;67239;51.680;5.976;2024-01-30T10:33:46;11.48;;;7.28;;
66886;SDS011;67239;51.680;5.976;2024-01-30T10:36:13;11.45;;;7.07;;
66886;SDS011;67239;51.680;5.976;2024-01-30T10:38:46;12.80;;;7.65;;
66886;SDS011;67239;51.680;5.976;2024-01-30T10:41:19;10.25;;;6.80;;
66886;SDS011;67239;51.680;5.976;2024-01-30T10:44:08;15.07;;;7.40;;
66886;SDS011;67239;51.680;5.976;2024-01-30T10:46:37;13.43;;;7.27;;
66886;SDS011;67239;51.680;5.976;2024-01-30T10:49:06;10.13;;;7.10;;
66886;SDS011;67239;51.680;5.976;2024-01-30T10:51:34;14.10;;;7.63;;
66886;SDS011;67239;51.680;5.976;2024-01-30T10:54:05;11.13;;;7.20;;
66886;SDS011;67239;51.680;5.976;2024-01-30T10:56:34;11.25;;;7.88;;
66886;SDS011;67239;51.680;5.976;2024-01-30T10:59:02;11.77;;;7.60;;
66886;SDS011;67239;51.680;5.976;2024-01-30T11:01:30;15.32;;;7.63;;
66886;SDS011;67239;51.680;5.976;2024-01-30T11:03:58;14.23;;;7.93;;
66886;SDS011;67239;51.680;5.976;2024-01-30T11:06:25;11.60;;;7.32;;
66886;SDS011;67239;51.680;5.976;2024-01-30T11:09:02;12.93;;;8.00;;
66886;SDS011;67239;51.680;5.976;2024-01-30T11:16:59;13.88;;;7.93;;
66886;SDS011;67239;51.680;5.976;2024-01-30T11:19:27;13.00;;;7.97;;
66886;SDS011;67239;51.680;5.976;2024-01-30T11:21:59;11.38;;;8.07;;
66886;SDS011;67239;51.680;5.976;2024-01-30T11:24:27;13.48;;;7.93;;
66886;SDS011;67239;51.680;5.976;2024-01-30T11:27:01;11.52;;;7.50;;
66886;SDS011;67239;51.680;5.976;2024-01-30T11:29:34;13.07;;;8.40;;
66886;SDS011;67239;51.680;5.976;2024-01-30T11:32:02;16.40;;;8.07;;
66886;SDS011;67239;51.680;5.976;2024-01-30T11:34:29;14.63;;;7.78;;
66886;SDS011;67239;51.680;5.976;2024-01-30T11:36:58;11.63;;;7.57;;
66886;SDS011;67239;51.680;5.976;2024-01-30T11:39:30;14.48;;;8.05;;
66886;SDS011;67239;51.680;5.976;2024-01-30T11:41:58;14.45;;;7.63;;
66886;SDS011;67239;51.680;5.976;2024-01-30T11:44:25;12.90;;;7.70;;
66886;SDS011;67239;51.680;5.976;2024-01-30T11:46:52;13.45;;;7.18;;
66886;SDS011;67239;51.680;5.976;2024-01-30T11:49:20;13.18;;;7.68;;
66886;SDS011;67239;51.680;5.976;2024-01-30T11:51:48;14.73;;;7.38;;
66886;SDS011;67239;51.680;5.976;2024-01-30T11:54:16;11.90;;;7.18;;
66886;SDS011;67239;51.680;5.976;2024-01-30T11:56:43;12.48;;;7.45;;
66886;SDS011;67239;51.680;5.976;2024-01-30T11:59:11;11.18;;;7.35;;
66886;SDS011;67239;51.680;5.976;2024-01-30T12:01:38;13.05;;;6.80;;
66886;SDS011;67239;51.680;5.976;2024-01-30T12:04:07;11.70;;;7.32;;
66886;SDS011;67239;51.680;5.976;2024-01-30T12:06:37;12.55;;;7.78;;
66886;SDS011;67239;51.680;5.976;2024-01-30T12:09:06;17.58;;;7.32;;
66886;SDS011;67239;51.680;5.976;2024-01-30T12:11:46;14.48;;;7.32;;
66886;SDS011;67239;51.680;5.976;2024-01-30T12:14:15;9.20;;;6.68;;
66886;SDS011;67239;51.680;5.976;2024-01-30T12:16:43;10.82;;;6.65;;
66886;SDS011;67239;51.680;5.976;2024-01-30T12:19:10;14.63;;;7.43;;
66886;SDS011;67239;51.680;5.976;2024-01-30T12:21:38;14.10;;;7.80;;
66886;SDS011;67239;51.680;5.976;2024-01-30T12:24:05;13.65;;;7.00;;
66886;SDS011;67239;51.680;5.976;2024-01-30T12:26:34;11.65;;;6.85;;
66886;SDS011;67239;51.680;5.976;2024-01-30T12:29:03;13.25;;;6.72;;
66886;SDS011;67239;51.680;5.976;2024-01-30T12:31:31;18.95;;;6.80;;
66886;SDS011;67239;51.680;5.976;2024-01-30T12:34:00;15.50;;;7.20;;
66886;SDS011;67239;51.680;5.976;2024-01-30T12:36:28;12.73;;;6.85;;
66886;SDS011;67239;51.680;5.976;2024-01-30T12:38:57;11.82;;;6.93;;
66886;SDS011;67239;51.680;5.976;2024-01-30T12:41:25;9.25;;;5.63;;
66886;SDS011;67239;51.680;5.976;2024-01-30T12:43:57;15.32;;;6.18;;
66886;SDS011;67239;51.680;5.976;2024-01-30T12:46:27;13.30;;;5.30;;
66886;SDS011;67239;51.680;5.976;2024-01-30T12:48:56;9.63;;;5.60;;
66886;SDS011;67239;51.680;5.976;2024-01-30T12:51:23;10.40;;;5.82;;
66886;SDS011;67239;51.680;5.976;2024-01-30T12:53:51;13.82;;;5.57;;
66886;SDS011;67239;51.680;5.976;2024-01-30T12:56:18;14.77;;;5.85;;
66886;SDS011;67239;51.680;5.976;2024-01-30T12:58:45;13.93;;;6.10;;
66886;SDS011;67239;51.680;5.976;2024-01-30T13:01:17;8.07;;;5.32;;
66886;SDS011;67239;51.680;5.976;2024-01-30T13:03:44;11.93;;;5.65;;
66886;SDS011;67239;51.680;5.976;2024-01-30T13:06:12;8.32;;;5.15;;
66886;SDS011;67239;51.680;5.976;2024-01-30T13:08:39;14.80;;;5.40;;
66886;SDS011;67239;51.680;5.976;2024-01-30T13:11:06;18.60;;;5.65;;
66886;SDS011;67239;51.680;5.976;2024-01-30T13:13:43;13.10;;;4.93;;
66886;SDS011;67239;51.680;5.976;2024-01-30T13:16:10;14.50;;;4.28;;
66886;SDS011;67239;51.680;5.976;2024-01-30T13:18:38;10.43;;;3.83;;
66886;SDS011;67239;51.680;5.976;2024-01-30T13:21:05;11.50;;;4.13;;
66886;SDS011;67239;51.680;5.976;2024-01-30T13:23:32;11.95;;;3.63;;
66886;SDS011;67239;51.680;5.976;2024-01-30T13:25:59;9.55;;;3.28;;
66886;SDS011;67239;51.680;5.976;2024-01-30T13:28:26;13.35;;;4.05;;
66886;SDS011;67239;51.680;5.976;2024-01-30T13:30:53;7.82;;;3.28;;
66886;SDS011;67239;51.680;5.976;2024-01-30T13:33:21;14.40;;;3.78;;
66886;SDS011;67239;51.680;5.976;2024-01-30T13:35:48;12.15;;;2.90;;
66886;SDS011;67239;51.680;5.976;2024-01-30T13:38:15;8.00;;;2.70;;
66886;SDS011;67239;51.680;5.976;2024-01-30T13:40:43;5.60;;;2.40;;
66886;SDS011;67239;51.680;5.976;2024-01-30T13:43:10;7.13;;;2.42;;
66886;SDS011;67239;51.680;5.976;2024-01-30T13:45:38;7.38;;;2.70;;
66886;SDS011;67239;51.680;5.976;2024-01-30T13:48:06;4.72;;;2.10;;
66886;SDS011;67239;51.680;5.976;2024-01-30T13:50:33;6.75;;;2.47;;
66886;SDS011;67239;51.680;5.976;2024-01-30T13:53:02;2.95;;;2.00;;
66886;SDS011;67239;51.680;5.976;2024-01-30T13:55:31;4.53;;;1.83;;
66886;SDS011;67239;51.680;5.976;2024-01-30T13:57:58;6.63;;;1.90;;
66886;SDS011;67239;51.680;5.976;2024-01-30T14:00:26;8.70;;;2.30;;
66886;SDS011;67239;51.680;5.976;2024-01-30T14:02:53;4.35;;;1.88;;
66886;SDS011;67239;51.680;5.976;2024-01-30T14:05:25;9.10;;;2.38;;
66886;SDS011;67239;51.680;5.976;2024-01-30T14:07:54;5.47;;;1.90;;
66886;SDS011;67239;51.680;5.976;2024-01-30T14:10:24;4.80;;;2.15;;
66886;SDS011;67239;51.680;5.976;2024-01-30T14:12:52;8.05;;;2.35;;
66886;SDS011;67239;51.680;5.976;2024-01-30T14:15:19;5.50;;;2.10;;
66886;SDS011;67239;51.680;5.976;2024-01-30T14:17:55;6.85;;;2.30;;
66886;SDS011;67239;51.680;5.976;2024-01-30T14:20:24;10.50;;;2.22;;
66886;SDS011;67239;51.680;5.976;2024-01-30T14:22:52;6.60;;;2.00;;
66886;SDS011;67239;51.680;5.976;2024-01-30T14:25:22;8.40;;;2.42;;
66886;SDS011;67239;51.680;5.976;2024-01-30T14:27:49;7.00;;;2.60;;
66886;SDS011;67239;51.680;5.976;2024-01-30T14:30:16;12.25;;;2.40;;
66886;SDS011;67239;51.680;5.976;2024-01-30T14:32:44;5.07;;;2.50;;
66886;SDS011;67239;51.680;5.976;2024-01-30T14:35:11;8.40;;;2.63;;
66886;SDS011;67239;51.680;5.976;2024-01-30T14:37:39;8.63;;;2.85;;
66886;SDS011;67239;51.680;5.976;2024-01-30T14:40:07;21.80;;;3.67;;
66886;SDS011;67239;51.680;5.976;2024-01-30T14:42:35;12.05;;;2.83;;